createdAt,value
2022-09-12T00:02:04.411Z,98310.94
2022-09-12T00:04:31.824Z,98307.13
2022-09-12T00:06:59.079Z,98308.19
2022-09-12T00:09:26.094Z,98306.72
2022-09-12T00:11:53.254Z,98299.75
2022-09-12T00:14:20.454Z,98305.44
2022-09-12T00:16:47.765Z,98303.56
2022-09-12T00:19:15.547Z,98291.50
2022-09-12T00:21:42.776Z,98294.44
2022-09-12T00:24:10.773Z,98293.94
2022-09-12T00:26:38.084Z,98291.38
2022-09-12T00:29:05.141Z,98286.00
2022-09-12T00:31:32.573Z,98285.16
2022-09-12T00:34:01.240Z,98286.50
2022-09-12T00:36:31.284Z,98287.25
2022-09-12T00:38:58.887Z,98288.72
2022-09-12T00:41:31.438Z,98289.00
2022-09-12T00:44:18.101Z,98283.38
2022-09-12T00:47:01.274Z,98277.44
2022-09-12T00:49:47.073Z,98273.44
2022-09-12T00:52:17.136Z,98274.91
2022-09-12T00:54:48.146Z,98272.69
2022-09-12T00:57:16.531Z,98272.38
2022-09-12T00:59:48.635Z,98266.88
2022-09-12T01:02:15.957Z,98271.09
2022-09-12T01:04:44.501Z,98265.59
2022-09-12T01:07:11.717Z,98257.16
2022-09-12T01:09:39.666Z,98265.00
2022-09-12T01:12:06.742Z,98263.72
2022-09-12T01:14:34.906Z,98258.03
2022-09-12T01:17:01.959Z,98260.16
2022-09-12T01:19:35.236Z,98263.09
2022-09-12T01:22:26.141Z,98260.88
2022-09-12T01:25:17.702Z,98256.13
2022-09-12T01:28:12.166Z,98259.34
2022-09-12T01:30:45.807Z,98255.66
2022-09-12T01:33:44.874Z,98251.44
2022-09-12T01:36:39.840Z,98258.72
2022-09-12T01:39:23.415Z,98252.28
2022-09-12T01:42:24.939Z,98258.31
2022-09-12T01:45:14.418Z,98253.69
2022-09-12T01:47:45.241Z,98251.81
2022-09-12T01:50:18.696Z,98241.56
2022-09-12T01:52:51.010Z,98243.34
2022-09-12T01:55:28.535Z,98249.91
2022-09-12T01:58:17.188Z,98253.13
2022-09-12T02:00:50.732Z,98250.78
2022-09-12T02:03:24.053Z,98252.38
2022-09-12T02:05:55.113Z,98250.91
2022-09-12T02:08:52.237Z,98254.94
2022-09-12T02:11:19.375Z,98249.75
2022-09-12T02:14:00.104Z,98249.00
2022-09-12T02:17:05.338Z,98262.75
2022-09-12T02:19:37.459Z,98256.41
2022-09-12T02:22:05.161Z,98254.19
2022-09-12T02:24:37.053Z,98247.75
2022-09-12T02:27:16.019Z,98254.63
2022-09-12T02:29:44.714Z,98257.69
2022-09-12T02:32:27.998Z,98252.53
2022-09-12T02:35:23.104Z,98255.59
2022-09-12T02:38:11.535Z,98259.06
2022-09-12T02:40:38.732Z,98250.72
2022-09-12T02:43:06.542Z,98257.34
2022-09-12T02:45:34.885Z,98255.78
2022-09-12T02:48:08.925Z,98259.69
2022-09-12T02:50:36.071Z,98252.59
2022-09-12T02:53:05.636Z,98250.56
2022-09-12T02:55:33.927Z,98255.66
2022-09-12T02:58:03.816Z,98253.97
2022-09-12T03:00:51.068Z,98260.53
2022-09-12T03:03:33.266Z,98249.00
2022-09-12T03:06:02.683Z,98254.19
2022-09-12T03:08:32.515Z,98253.03
2022-09-12T03:11:09.147Z,98260.00
2022-09-12T03:13:50.662Z,98244.25
2022-09-12T03:16:34.561Z,98254.19
2022-09-12T03:19:25.523Z,98251.44
2022-09-12T03:22:02.418Z,98244.88
2022-09-12T03:24:34.045Z,98243.94
2022-09-12T03:27:17.209Z,98251.22
2022-09-12T03:29:47.387Z,98252.09
2022-09-12T03:32:15.006Z,98242.59
2022-09-12T03:34:41.984Z,98238.38
2022-09-12T03:37:08.961Z,98238.75
2022-09-12T03:39:36.021Z,98238.75
2022-09-12T03:42:03.039Z,98235.47
2022-09-12T03:44:30.092Z,98236.63
2022-09-12T03:46:57.122Z,98239.59
2022-09-12T03:49:24.105Z,98235.66
2022-09-12T03:51:51.168Z,98235.88
2022-09-12T03:54:18.194Z,98231.09
2022-09-12T03:56:45.269Z,98236.81
2022-09-12T03:59:12.269Z,98236.88
2022-09-12T04:01:39.272Z,98235.06
2022-09-12T04:04:09.183Z,98233.59
2022-09-12T04:06:36.245Z,98232.13
2022-09-12T04:09:03.923Z,98234.75
2022-09-12T04:11:32.234Z,98234.75
2022-09-12T04:13:59.335Z,98234.53
2022-09-12T04:16:26.382Z,98236.00
2022-09-12T04:18:54.185Z,98227.63
2022-09-12T04:21:22.149Z,98237.78
2022-09-12T04:23:49.569Z,98236.88
2022-09-12T04:26:17.829Z,98235.28
2022-09-12T04:28:46.261Z,98233.81
2022-09-12T04:31:17.741Z,98228.84
2022-09-12T04:33:45.388Z,98228.63
2022-09-12T04:36:16.718Z,98226.78
2022-09-12T04:38:45.168Z,98228.56
2022-09-12T04:41:17.889Z,98231.31
2022-09-12T04:43:48.382Z,98235.16
2022-09-12T04:46:17.289Z,98237.88
2022-09-12T04:48:44.350Z,98235.34
2022-09-12T04:51:14.159Z,98237.69
2022-09-12T04:53:41.669Z,98238.22
2022-09-12T04:56:10.154Z,98245.75
2022-09-12T04:58:37.793Z,98243.00
2022-09-12T05:01:08.607Z,98243.00
2022-09-12T05:03:35.946Z,98236.34
2022-09-12T05:06:03.620Z,98239.09
2022-09-12T05:08:30.613Z,98241.31
2022-09-12T05:11:02.357Z,98249.53
2022-09-12T05:13:29.320Z,98248.28
2022-09-12T05:16:00.275Z,98243.31
2022-09-12T05:18:27.774Z,98247.72
2022-09-12T05:20:55.134Z,98249.97
2022-09-12T05:23:22.293Z,98257.13
2022-09-12T05:25:53.445Z,98266.31
2022-09-12T05:28:21.373Z,98255.53
2022-09-12T05:30:48.726Z,98263.25
2022-09-12T05:33:16.133Z,98267.84
2022-09-12T05:35:51.402Z,98267.00
2022-09-12T05:38:18.688Z,98274.91
2022-09-12T05:40:45.839Z,98271.28
2022-09-12T05:43:12.830Z,98273.19
2022-09-12T05:45:41.442Z,98268.97
2022-09-12T05:48:08.492Z,98267.13
2022-09-12T05:50:35.595Z,98272.84
2022-09-12T05:53:02.573Z,98274.53
2022-09-12T05:55:30.895Z,98273.25
2022-09-12T05:57:57.897Z,98275.13
2022-09-12T06:00:25.178Z,98271.72
2022-09-12T06:02:53.396Z,98275.81
2022-09-12T06:05:20.792Z,98279.91
2022-09-12T06:07:48.666Z,98273.00
2022-09-12T06:10:16.156Z,98271.75
2022-09-12T06:12:43.670Z,98282.09
2022-09-12T06:15:10.955Z,98283.94
2022-09-12T06:17:37.939Z,98291.13
2022-09-12T06:20:05.215Z,98286.19
2022-09-12T06:22:32.305Z,98286.06
2022-09-12T06:24:59.320Z,98288.69
2022-09-12T06:27:26.591Z,98281.88
2022-09-12T06:29:53.569Z,98285.22
2022-09-12T06:32:20.577Z,98281.53
2022-09-12T06:34:48.502Z,98282.56
2022-09-12T06:37:15.522Z,98284.72
2022-09-12T06:39:42.551Z,98281.66
2022-09-12T06:42:10.047Z,98279.47
2022-09-12T06:44:37.367Z,98284.66
2022-09-12T06:47:04.448Z,98285.75
2022-09-12T06:49:31.617Z,98284.31
2022-09-12T06:51:58.610Z,98285.06
2022-09-12T06:54:26.465Z,98284.50
2022-09-12T06:56:53.467Z,98284.91
2022-09-12T06:59:20.446Z,98288.78
2022-09-12T07:01:47.503Z,98284.19
2022-09-12T07:04:14.699Z,98283.81
2022-09-12T07:06:42.869Z,98287.13
2022-09-12T07:09:12.077Z,98284.19
2022-09-12T07:11:40.843Z,98291.91
2022-09-12T07:14:09.444Z,98287.53
2022-09-12T07:16:36.708Z,98284.97
2022-09-12T07:19:05.531Z,98292.31
2022-09-12T07:21:33.068Z,98295.47
2022-09-12T07:24:00.110Z,98293.47
2022-09-12T07:26:28.855Z,98289.09
2022-09-12T07:29:12.866Z,98287.34
2022-09-12T07:31:44.192Z,98290.66
2022-09-12T07:34:11.204Z,98283.72
2022-09-12T07:36:39.099Z,98287.06
2022-09-12T07:39:06.332Z,98290.22
2022-09-12T07:41:36.272Z,98290.06
2022-09-12T07:44:03.754Z,98281.78
2022-09-12T07:46:31.612Z,98284.00
2022-09-12T07:49:00.404Z,98285.47
2022-09-12T07:51:28.749Z,98291.34
2022-09-12T07:53:57.359Z,98288.41
2022-09-12T07:56:29.349Z,98293.19
2022-09-12T07:58:57.820Z,98291.34
2022-09-12T08:01:24.851Z,98292.63
2022-09-12T08:03:57.286Z,98289.66
2022-09-12T08:06:26.125Z,98304.16
2022-09-12T08:08:55.053Z,98301.69
2022-09-12T08:11:23.222Z,98296.25
2022-09-12T08:13:55.367Z,98292.50
2022-09-12T08:16:25.835Z,98302.56
2022-09-12T08:18:53.062Z,98294.94
2022-09-12T08:21:22.471Z,98295.84
2022-09-12T08:24:03.781Z,98295.09
2022-09-12T08:26:31.740Z,98288.84
2022-09-12T08:28:59.345Z,98293.63
2022-09-12T08:31:27.440Z,98292.59
2022-09-12T08:33:58.907Z,98290.03
2022-09-12T08:36:27.414Z,98289.69
2022-09-12T08:39:00.622Z,98292.63
2022-09-12T08:41:46.941Z,98288.72
2022-09-12T08:44:39.631Z,98283.88
2022-09-12T08:47:23.667Z,98290.50
2022-09-12T08:49:59.412Z,98291.19
2022-09-12T08:53:05.241Z,98285.66
2022-09-12T08:55:53.719Z,98289.19
2022-09-12T08:58:23.254Z,98286.81
2022-09-12T09:01:08.802Z,98290.31
2022-09-12T09:03:54.597Z,98283.31
2022-09-12T09:06:48.019Z,98289.75
2022-09-12T09:09:36.061Z,98292.69
2022-09-12T09:12:29.139Z,98287.16
2022-09-12T09:15:12.072Z,98286.25
2022-09-12T09:17:42.678Z,98290.31
2022-09-12T09:20:30.079Z,98287.94
2022-09-12T09:23:02.333Z,98287.00
2022-09-12T09:25:53.710Z,98285.59
2022-09-12T09:28:29.206Z,98281.88
2022-09-12T09:30:56.296Z,98278.75
2022-09-12T09:33:26.103Z,98281.56
2022-09-12T09:35:59.991Z,98281.28
2022-09-12T09:38:30.716Z,98269.53
2022-09-12T09:41:28.413Z,98273.84
2022-09-12T09:43:56.464Z,98275.56
2022-09-12T09:46:23.974Z,98277.41
2022-09-12T09:48:51.434Z,98272.91
2022-09-12T09:51:25.059Z,98272.00
2022-09-12T09:53:54.842Z,98267.13
2022-09-12T09:56:31.475Z,98263.97
2022-09-12T09:59:25.802Z,98270.19
2022-09-12T10:01:55.423Z,98271.88
2022-09-12T10:04:25.883Z,98268.06
2022-09-12T10:06:54.437Z,98268.47
2022-09-12T10:09:24.295Z,98265.53
2022-09-12T10:11:51.851Z,98264.81
2022-09-12T10:14:39.919Z,98261.69
2022-09-12T10:17:34.208Z,98248.25
2022-09-12T10:20:20.541Z,98253.78
2022-09-12T10:22:48.686Z,98251.44
2022-09-12T10:25:18.577Z,98244.69
2022-09-12T10:27:52.921Z,98249.94
2022-09-12T10:30:20.673Z,98244.75
2022-09-12T10:32:51.065Z,98246.22
2022-09-12T10:35:28.784Z,98238.25
2022-09-12T10:38:02.472Z,98229.59
2022-09-12T10:40:35.105Z,98240.44
2022-09-12T10:43:03.276Z,98231.22
2022-09-12T10:45:32.525Z,98239.66
2022-09-12T10:48:06.766Z,98230.13
2022-09-12T10:50:43.779Z,98230.28
2022-09-12T10:53:25.724Z,98218.47
2022-09-12T10:56:03.323Z,98223.91
2022-09-12T10:59:14.741Z,98225.13
2022-09-12T11:01:47.429Z,98223.59
2022-09-12T11:04:30.284Z,98220.72
2022-09-12T11:07:22.630Z,98230.53
2022-09-12T11:10:09.701Z,98224.75
2022-09-12T11:12:53.313Z,98215.69
2022-09-12T11:15:39.429Z,98221.69
2022-09-12T11:18:16.492Z,98219.63
2022-09-12T11:21:19.668Z,98220.81
2022-09-12T11:24:12.858Z,98223.88
2022-09-12T11:26:47.944Z,98219.34
2022-09-12T11:29:46.815Z,98224.47
2022-09-12T11:32:45.126Z,98217.00
2022-09-12T11:35:25.673Z,98223.28
2022-09-12T11:38:16.940Z,98212.88
2022-09-12T11:40:55.594Z,98219.13
2022-09-12T11:43:41.438Z,98218.53
2022-09-12T11:46:25.324Z,98222.03
2022-09-12T11:48:59.973Z,98219.53
2022-09-12T11:51:35.889Z,98216.28
2022-09-12T11:54:10.077Z,98213.47
2022-09-12T11:56:40.630Z,98214.34
2022-09-12T11:59:47.873Z,98208.91
2022-09-12T12:02:26.112Z,98205.81
2022-09-12T12:05:21.219Z,98208.03
2022-09-12T12:07:52.231Z,98204.50
2022-09-12T12:10:34.830Z,98201.28
2022-09-12T12:13:05.609Z,98199.50
2022-09-12T12:15:36.004Z,98192.69
2022-09-12T12:18:06.554Z,98201.03
2022-09-12T12:20:33.795Z,98192.69
2022-09-12T12:23:01.089Z,98197.97
2022-09-12T12:25:51.513Z,98189.00
2022-09-12T12:28:50.437Z,98190.31
2022-09-12T12:31:17.962Z,98192.38
2022-09-12T12:33:44.976Z,98185.03
2022-09-12T12:36:38.568Z,98190.00
2022-09-12T12:39:33.520Z,98193.22
2022-09-12T12:42:01.210Z,98184.22
2022-09-12T12:44:47.576Z,98185.44
2022-09-12T12:47:18.797Z,98181.50
2022-09-12T12:49:51.991Z,98174.66
2022-09-12T12:52:19.470Z,98167.22
2022-09-12T12:54:46.454Z,98165.06
2022-09-12T12:57:13.350Z,98164.47
2022-09-12T12:59:59.579Z,98154.09
2022-09-12T13:02:31.054Z,98155.16
2022-09-12T13:05:00.165Z,98160.69
2022-09-12T13:07:34.011Z,98155.13
2022-09-12T13:10:01.507Z,98151.34
2022-09-12T13:12:32.749Z,98146.81
2022-09-12T13:15:01.930Z,98145.31
2022-09-12T13:17:33.473Z,98149.00
2022-09-12T13:20:29.772Z,98149.00
2022-09-12T13:22:57.824Z,98143.56
2022-09-12T13:25:37.063Z,98141.09
2022-09-12T13:28:16.310Z,98134.22
2022-09-12T13:30:45.350Z,98128.97
2022-09-12T13:33:20.057Z,98131.91
2022-09-12T13:36:03.832Z,98128.69
2022-09-12T13:38:34.854Z,98126.63
2022-09-12T13:41:35.168Z,98127.06
2022-09-12T13:44:03.620Z,98135.25
2022-09-12T13:46:33.968Z,98126.75
2022-09-12T13:49:05.823Z,98126.00
2022-09-12T13:51:32.947Z,98122.34
2022-09-12T13:54:03.467Z,98122.00
2022-09-12T13:56:30.444Z,98124.22
2022-09-12T13:59:00.372Z,98124.38
2022-09-12T14:01:41.946Z,98123.97
2022-09-12T14:04:39.992Z,98122.81
2022-09-12T14:07:24.262Z,98116.81
2022-09-12T14:09:56.335Z,98121.19
2022-09-12T14:12:36.651Z,98117.97
2022-09-12T14:15:04.006Z,98110.22
2022-09-12T14:17:34.713Z,98112.69
2022-09-12T14:20:07.153Z,98112.13
2022-09-12T14:22:34.971Z,98114.78
2022-09-12T14:25:02.135Z,98114.03
2022-09-12T14:27:32.257Z,98107.16
2022-09-12T14:30:03.804Z,98103.06
2022-09-12T14:32:30.868Z,98110.97
2022-09-12T14:35:22.638Z,98098.22
2022-09-12T14:37:51.277Z,98104.53
2022-09-12T14:40:21.192Z,98096.94
2022-09-12T14:42:49.936Z,98099.84
2022-09-12T14:45:24.360Z,98096.22
2022-09-12T14:47:52.914Z,98091.94
2022-09-12T14:50:24.019Z,98089.91
2022-09-12T14:53:11.161Z,98096.94
2022-09-12T14:55:46.470Z,98085.09
2022-09-12T14:58:26.238Z,98090.34
2022-09-12T15:01:02.480Z,98082.59
2022-09-12T15:03:37.595Z,98087.44
2022-09-12T15:06:07.894Z,98096.38
2022-09-12T15:08:35.003Z,98089.31
2022-09-12T15:11:02.007Z,98087.31
2022-09-12T15:13:30.174Z,98095.47
2022-09-12T15:15:59.099Z,98089.78
2022-09-12T15:18:28.425Z,98084.69
2022-09-12T15:20:57.929Z,98085.09
2022-09-12T15:23:27.851Z,98077.78
2022-09-12T15:25:54.836Z,98075.44
2022-09-12T15:28:23.007Z,98076.91
2022-09-12T15:30:51.647Z,98073.41
2022-09-12T15:33:20.947Z,98066.22
2022-09-12T15:35:47.981Z,98071.38
2022-09-12T15:38:15.014Z,98077.19
2022-09-12T15:40:42.520Z,98073.97
2022-09-12T15:43:12.815Z,98074.13
2022-09-12T15:45:42.412Z,98075.00
2022-09-12T15:48:10.289Z,98066.81
2022-09-12T15:50:37.545Z,98068.16
2022-09-12T15:53:04.559Z,98068.88
2022-09-12T15:55:32.272Z,98061.88
2022-09-12T15:58:03.548Z,98072.09
2022-09-12T16:00:33.401Z,98069.88
2022-09-12T16:03:00.995Z,98061.56
2022-09-12T16:05:28.172Z,98076.63
2022-09-12T16:07:55.554Z,98069.47
2022-09-12T16:10:28.084Z,98075.00
2022-09-12T16:12:55.242Z,98068.72
2022-09-12T16:15:24.597Z,98069.28
2022-09-12T16:17:51.909Z,98063.59
2022-09-12T16:20:19.554Z,98065.50
2022-09-12T16:22:46.578Z,98052.22
2022-09-12T16:25:13.852Z,98054.41
2022-09-12T16:27:41.196Z,98050.72
2022-09-12T16:30:08.875Z,98050.00
2022-09-12T16:32:36.311Z,98047.09
2022-09-12T16:35:03.558Z,98048.41
2022-09-12T16:37:32.136Z,98046.06
2022-09-12T16:39:59.237Z,98041.09
2022-09-12T16:42:26.353Z,98045.91
2022-09-12T16:44:53.343Z,98042.84
2022-09-12T16:47:20.343Z,98042.13
2022-09-12T16:49:47.347Z,98037.16
2022-09-12T16:52:16.557Z,98037.72
2022-09-12T16:54:44.393Z,98026.06
2022-09-12T16:57:11.828Z,98023.28
2022-09-12T16:59:38.817Z,98029.38
2022-09-12T17:02:06.219Z,98031.44
2022-09-12T17:04:33.331Z,98029.09
2022-09-12T17:07:00.394Z,98028.38
2022-09-12T17:09:28.782Z,98031.16
2022-09-12T17:11:56.705Z,98019.72
2022-09-12T17:14:24.491Z,98013.13
2022-09-12T17:16:52.182Z,98012.25
2022-09-12T17:19:26.578Z,98016.03
2022-09-12T17:21:54.404Z,98015.31
2022-09-12T17:24:23.084Z,98017.19
2022-09-12T17:26:51.109Z,98017.78
2022-09-12T17:29:18.171Z,98017.63
2022-09-12T17:31:45.639Z,98011.75
2022-09-12T17:34:14.549Z,98015.56
2022-09-12T17:36:44.362Z,98015.56
2022-09-12T17:39:12.631Z,98007.50
2022-09-12T17:41:41.719Z,98014.34
2022-09-12T17:44:11.395Z,98018.09
2022-09-12T17:46:39.778Z,98015.19
2022-09-12T17:49:18.648Z,98018.38
2022-09-12T17:51:45.666Z,98020.69
2022-09-12T17:54:16.002Z,98011.75
2022-09-12T17:56:44.878Z,98020.19
2022-09-12T17:59:15.365Z,98020.28
2022-09-12T18:02:01.090Z,98017.28
2022-09-12T18:04:28.278Z,98025.13
2022-09-12T18:06:57.448Z,98020.56
2022-09-12T18:09:27.202Z,98023.59
2022-09-12T18:11:54.505Z,98023.13
2022-09-12T18:14:21.920Z,98031.09
2022-09-12T18:16:49.180Z,98026.38
2022-09-12T18:19:16.558Z,98022.25
2022-09-12T18:21:43.591Z,98020.28
2022-09-12T18:24:11.175Z,98019.06
2022-09-12T18:26:38.531Z,98016.38
2022-09-12T18:29:05.672Z,98024.22
2022-09-12T18:31:32.869Z,98023.72
2022-09-12T18:34:00.326Z,98012.00
2022-09-12T18:36:28.240Z,98020.78
2022-09-12T18:38:57.262Z,98017.50
2022-09-12T18:41:24.882Z,98015.69
2022-09-12T18:43:56.066Z,98016.50
2022-09-12T18:46:23.212Z,98016.81
2022-09-12T18:48:50.407Z,98013.13
2022-09-12T18:51:19.964Z,98012.06
2022-09-12T18:53:56.031Z,98014.31
2022-09-12T18:56:24.726Z,98013.66
2022-09-12T18:58:53.813Z,98009.63
2022-09-12T19:01:35.347Z,98015.56
2022-09-12T19:04:06.110Z,98017.97
2022-09-12T19:06:44.448Z,98018.59
2022-09-12T19:09:16.247Z,98015.16
2022-09-12T19:11:48.832Z,98013.91
2022-09-12T19:14:16.907Z,98005.13
2022-09-12T19:16:43.905Z,98006.97
2022-09-12T19:19:10.915Z,97998.34
2022-09-12T19:21:37.888Z,97999.28
2022-09-12T19:24:07.188Z,98004.44
2022-09-12T19:26:36.095Z,98005.19
2022-09-12T19:29:03.611Z,98001.50
2022-09-12T19:31:30.982Z,98006.84
2022-09-12T19:34:02.549Z,98010.72
2022-09-12T19:36:46.617Z,97999.53
2022-09-12T19:39:16.254Z,98009.47
2022-09-12T19:41:43.826Z,97996.06
2022-09-12T19:44:11.625Z,98005.16
2022-09-12T19:46:38.747Z,98002.25
2022-09-12T19:49:05.791Z,98000.41
2022-09-12T19:51:32.786Z,97996.19
2022-09-12T19:53:59.821Z,97999.50
2022-09-12T19:56:26.887Z,98001.16
2022-09-12T19:58:56.606Z,97997.50
2022-09-12T20:01:28.039Z,98000.63
2022-09-12T20:03:56.496Z,97999.00
2022-09-12T20:06:23.713Z,97992.94
2022-09-12T20:08:50.697Z,97993.69
2022-09-12T20:11:19.467Z,97997.72
2022-09-12T20:13:46.889Z,98000.16
2022-09-12T20:16:21.355Z,97990.78
2022-09-12T20:18:56.414Z,97989.69
2022-09-12T20:21:25.679Z,97992.25
2022-09-12T20:23:52.810Z,97998.16
2022-09-12T20:26:20.491Z,97991.72
2022-09-12T20:28:47.794Z,97990.78
2022-09-12T20:31:16.107Z,98000.19
2022-09-12T20:33:43.682Z,97995.03
2022-09-12T20:36:13.464Z,97991.50
2022-09-12T20:38:41.195Z,97991.72
2022-09-12T20:41:09.932Z,97997.97
2022-09-12T20:43:38.523Z,97994.66
2022-09-12T20:46:10.367Z,97990.06
2022-09-12T20:48:38.404Z,97992.28
2022-09-12T20:51:06.197Z,97986.03
2022-09-12T20:53:35.188Z,97984.53
2022-09-12T20:56:03.764Z,97991.16
2022-09-12T20:58:30.954Z,97981.25
2022-09-12T21:00:58.028Z,97982.00
2022-09-12T21:03:25.575Z,97987.31
2022-09-12T21:05:52.803Z,97980.16
2022-09-12T21:08:19.836Z,97973.16
2022-09-12T21:10:46.784Z,97973.56
2022-09-12T21:13:14.015Z,97975.00
2022-09-12T21:15:42.024Z,97973.16
2022-09-12T21:18:09.275Z,97966.75
2022-09-12T21:20:36.284Z,97972.06
2022-09-12T21:23:03.259Z,97957.34
2022-09-12T21:25:30.359Z,97964.34
2022-09-12T21:27:57.615Z,97952.41
2022-09-12T21:30:24.630Z,97962.50
2022-09-12T21:32:51.698Z,97950.75
2022-09-12T21:35:18.672Z,97950.03
2022-09-12T21:37:45.679Z,97953.66
2022-09-12T21:40:12.649Z,97950.16
2022-09-12T21:42:39.747Z,97944.84
2022-09-12T21:45:07.467Z,97945.94
2022-09-12T21:47:34.519Z,97943.38
2022-09-12T21:50:02.157Z,97933.47
2022-09-12T21:52:29.350Z,97940.09
2022-09-12T21:54:56.474Z,97933.47
2022-09-12T21:57:23.669Z,97929.41
2022-09-12T21:59:50.653Z,97937.47
2022-09-12T22:02:17.730Z,97930.13
2022-09-12T22:04:44.717Z,97931.59
2022-09-12T22:07:11.702Z,97926.84
2022-09-12T22:09:38.706Z,97926.09
2022-09-12T22:12:05.747Z,97922.06
2022-09-12T22:14:33.117Z,97919.44
2022-09-12T22:17:00.363Z,97917.56
2022-09-12T22:19:27.367Z,97910.59
2022-09-12T22:22:12.751Z,97914.09
2022-09-12T22:24:39.732Z,97899.63
2022-09-12T22:27:07.401Z,97895.22
2022-09-12T22:29:35.543Z,97898.69
2022-09-12T22:32:03.683Z,97896.88
2022-09-12T22:34:30.867Z,97890.25
2022-09-12T22:36:57.983Z,97889.88
2022-09-12T22:39:25.078Z,97892.63
2022-09-12T22:41:52.068Z,97895.91
2022-09-12T22:44:19.196Z,97889.88
2022-09-12T22:46:46.355Z,97886.38
2022-09-12T22:49:13.371Z,97887.50
2022-09-12T22:51:40.461Z,97885.81
2022-09-12T22:54:09.462Z,97880.13
2022-09-12T22:56:36.490Z,97882.69
2022-09-12T22:59:03.899Z,97877.94
2022-09-12T23:01:31.855Z,97872.44
2022-09-12T23:03:59.134Z,97871.88
2022-09-12T23:06:26.205Z,97864.75
2022-09-12T23:08:53.216Z,97865.09
2022-09-12T23:11:21.432Z,97857.97
2022-09-12T23:13:52.525Z,97854.63
2022-09-12T23:16:22.387Z,97843.78
2022-09-12T23:18:50.094Z,97849.84
2022-09-12T23:21:19.147Z,97841.22
2022-09-12T23:23:46.848Z,97844.16
2022-09-12T23:26:19.099Z,97847.47
2022-09-12T23:28:50.900Z,97846.19
2022-09-12T23:31:18.296Z,97839.41
2022-09-12T23:33:45.302Z,97842.13
2022-09-12T23:36:14.138Z,97843.59
2022-09-12T23:38:42.758Z,97833.50
2022-09-12T23:41:11.108Z,97843.00
2022-09-12T23:43:38.826Z,97841.53
2022-09-12T23:46:06.822Z,97833.50
2022-09-12T23:48:34.375Z,97833.84
2022-09-12T23:51:01.518Z,97830.56
2022-09-12T23:53:29.520Z,97834.59
2022-09-12T23:55:56.711Z,97843.38
2022-09-12T23:58:23.921Z,97834.59
